Newfield, Maine
Current Conditions -  °F | °C
As of 3:35 AM on Thursday 27 Nov 2014 (Local Time) from KSFM Reporting Station
Overcast Overcast  
Wind Chill: 23°   Ceiling: 1500
Heat Index: 32°   Visibility: 4mi
Dew Point: 27°   Wind: 13mph
Humidity: 80%   Direction: 360°N
Pressure: 29.74"   Gusts: 20mph
Location:  43.65°N, 70.85°W
Report Text: KSFM 270835Z AUTO 36011G17KT 4SM FEW010 BKN015 OVC022 00/M03 A2974 RMK AO1 P0001
Loading
Personal Weather Stations






























Interactive Weather Map New forecast layout! Learn more

10-Day Weather Forecast

Advertisements
Track Severe Weather on mobile